Home > Products > Valid Products > TAF

000
FTUS43 KDVN 262320
TAFMLI
TAF
KMLI 262320Z 2700/2724 04005KT P6SM SKC=



000
FTUS43 KDVN 262320
TAFDBQ
TAF
KDBQ 262320Z 2700/2724 04008KT P6SM SKC
     FM270200 VRB04KT P6SM SKC
     FM271500 02007KT P6SM SKC=



000
FTUS43 KDVN 262320
TAFCID
TAF
KCID 262320Z 2700/2724 02007KT P6SM SKC
     FM270200 VRB05KT P6SM SKC
     FM271500 02007KT P6SM SKC=



000
FTUS43 KDVN 262320
TAFMLI
TAF
KMLI 262320Z 2700/2724 04005KT P6SM SKC=



000
FTUS43 KDVN 262320
TAFCID
TAF
KCID 262320Z 2700/2724 02007KT P6SM SKC
     FM270200 VRB05KT P6SM SKC
     FM271500 02007KT P6SM SKC=



000
FTUS43 KDVN 262320
TAFDBQ
TAF
KDBQ 262320Z 2700/2724 04008KT P6SM SKC
     FM270200 VRB04KT P6SM SKC
     FM271500 02007KT P6SM SKC=



000
FTUS43 KDVN 262320
TAFBRL
TAF
KBRL 262320Z 2700/2724 03009KT P6SM SKC
     FM270100 03004KT P6SM SKC=



000
FTUS43 KDVN 262320
TAFBRL
TAF
KBRL 262320Z 2700/2724 03009KT P6SM SKC
     FM270100 03004KT P6SM SKC=



000
FTUS43 KDVN 261720
TAFBRL
TAF
KBRL 261720Z 2618/2718 03009KT P6SM SKC
     FM270200 VRB03KT P6SM SKC=



000
FTUS43 KDVN 261720
TAFCID
TAF
KCID 261720Z 2618/2718 04009KT P6SM SKC
     FM270200 VRB05KT P6SM SKC=



000
FTUS43 KDVN 261720
TAFMLI
TAF
KMLI 261720Z 2618/2718 04008KT P6SM SKC
     FM270200 VRB03KT P6SM SKC=



000
FTUS43 KDVN 261720
TAFDBQ
TAF
KDBQ 261720Z 2618/2718 03008KT P6SM SKC
     FM270200 VRB04KT P6SM SKC=



000
FTUS43 KDVN 261720
TAFBRL
TAF
KBRL 261720Z 2618/2718 03009KT P6SM SKC
     FM270200 VRB03KT P6SM SKC=



000
FTUS43 KDVN 261720
TAFMLI
TAF
KMLI 261720Z 2618/2718 04008KT P6SM SKC
     FM270200 VRB03KT P6SM SKC=



000
FTUS43 KDVN 261720
TAFCID
TAF
KCID 261720Z 2618/2718 04009KT P6SM SKC
     FM270200 VRB05KT P6SM SKC=



000
FTUS43 KDVN 261720
TAFDBQ
TAF
KDBQ 261720Z 2618/2718 03008KT P6SM SKC
     FM270200 VRB04KT P6SM SKC=



000
FTUS43 KDVN 261131
TAFBRL
TAF
KBRL 261131Z 2612/2712 03009KT P6SM FEW040 SCT200
     FM270300 01004KT P6SM SKC=



000
FTUS43 KDVN 261131
TAFCID
TAF
KCID 261131Z 2612/2712 04009KT P6SM SCT250
     FM270600 34006KT P6SM SKC=



000
FTUS43 KDVN 261131
TAFDBQ
TAF
KDBQ 261131Z 2612/2712 03010KT P6SM SKC
     FM270500 02005KT P6SM SKC=



000
FTUS43 KDVN 261131
TAFMLI
TAF
KMLI 261131Z 2612/2712 03008KT P6SM FEW040
     FM270300 01004KT P6SM SKC=



000
FTUS43 KDVN 260645 AAA
TAFBRL
TAF AMD
KBRL 260645Z 2607/2706 04012KT P6SM OVC050
     FM261100 04009KT P6SM SCT050
     FM261500 03009KT P6SM SKC=



000
FTUS43 KDVN 260520
TAFDBQ
TAF
KDBQ 260520Z 2606/2706 04008KT P6SM SKC
     FM260900 04005KT P6SM SCT030
     FM261500 05009KT P6SM SKC=



000
FTUS43 KDVN 260520
TAFMLI
TAF
KMLI 260520Z 2606/2706 05008KT P6SM SCT060
     FM261500 05009KT P6SM SKC=



000
FTUS43 KDVN 260520
TAFMLI
TAF
KMLI 260520Z 2606/2706 05008KT P6SM SCT060
     FM261500 05009KT P6SM SKC=



000
FTUS43 KDVN 260520
TAFCID
TAF
KCID 260520Z 2606/2706 06009KT P6SM OVC080
     FM260800 04007KT P6SM SCT030
     FM261500 05007KT P6SM SKC=



000
FTUS43 KDVN 260520
TAFCID
TAF
KCID 260520Z 2606/2706 06009KT P6SM OVC080
     FM260800 04007KT P6SM SCT030
     FM261500 05007KT P6SM SKC=



000
FTUS43 KDVN 260520
TAFBRL
TAF
KBRL 260520Z 2606/2706 05014KT P6SM OVC025
     FM260800 04009KT P6SM SCT020
     FM261500 04009KT P6SM SKC=



000
FTUS43 KDVN 260520
TAFDBQ
TAF
KDBQ 260520Z 2606/2706 04008KT P6SM SKC
     FM260900 04005KT P6SM SCT030
     FM261500 05009KT P6SM SKC=



000
FTUS43 KDVN 260520
TAFBRL
TAF
KBRL 260520Z 2606/2706 05014KT P6SM OVC025
     FM260800 04009KT P6SM SCT020
     FM261500 04009KT P6SM SKC=



000
FTUS43 KDVN 260406 AAA
TAFBRL
TAF AMD
KBRL 260406Z 2604/2624 05014KT P6SM OVC018
     FM260600 04010KT P6SM OVC025
     FM260800 04009KT P6SM SCT020
     FM261500 04009KT P6SM SKC=



000
FTUS43 KDVN 260406 AAA
TAFBRL
TAF AMD
KBRL 260406Z 2604/2624 05014KT P6SM OVC018
     FM260600 04010KT P6SM OVC025
     FM260800 04009KT P6SM SCT020
     FM261500 04009KT P6SM SKC=



000
FTUS43 KDVN 260226 AAA
TAFMLI
TAF AMD
KMLI 260226Z 2602/2624 06014KT P6SM BKN050
     FM260300 05012KT P6SM SCT030 BKN035
     FM260400 04009KT P6SM SCT030
     FM261500 05009KT P6SM SKC=



000
FTUS43 KDVN 252320
TAFBRL
TAF
KBRL 252320Z 2600/2624 05014KT 5SM BR OVC008
     FM260200 05012KT P6SM OVC015
     FM260400 04010KT P6SM OVC025
     FM260600 04009KT P6SM SCT020
     FM261500 04009KT P6SM SKC=



000
FTUS43 KDVN 252320
TAFDBQ
TAF
KDBQ 252320Z 2600/2624 06012KT P6SM OVC035
     FM260400 04009KT P6SM SCT030
     FM261500 05009KT P6SM SKC=



000
FTUS43 KDVN 252320
TAFMLI
TAF
KMLI 252320Z 2600/2624 06012KT P6SM VCSH OVC025
     FM260100 05012KT P6SM SCT030 BKN035
     FM260400 04009KT P6SM SCT030
     FM261500 05009KT P6SM SKC=



000
FTUS43 KDVN 252320
TAFCID
TAF
KCID 252320Z 2600/2624 06012KT P6SM OVC035
     FM260400 04009KT P6SM SCT030
     FM261500 05009KT P6SM SKC=



000
FTUS43 KDVN 252320
TAFMLI
TAF
KMLI 252320Z 2600/2624 06012KT P6SM VCSH OVC025
     FM260100 05012KT P6SM SCT030 BKN035
     FM260400 04009KT P6SM SCT030
     FM261500 05009KT P6SM SKC=



000
FTUS43 KDVN 252320
TAFBRL
TAF
KBRL 252320Z 2600/2624 05014KT 5SM BR OVC008
     FM260200 05012KT P6SM OVC015
     FM260400 04010KT P6SM OVC025
     FM260600 04009KT P6SM SCT020
     FM261500 04009KT P6SM SKC=



000
FTUS43 KDVN 252320
TAFDBQ
TAF
KDBQ 252320Z 2600/2624 06012KT P6SM OVC035
     FM260400 04009KT P6SM SCT030
     FM261500 05009KT P6SM SKC=



000
FTUS43 KDVN 252320
TAFCID
TAF
KCID 252320Z 2600/2624 06012KT P6SM OVC035
     FM260400 04009KT P6SM SCT030
     FM261500 05009KT P6SM SKC=



000
FTUS43 KDVN 252057 AAB
TAFCID
TAF AMD
KCID 252057Z 2521/2618 06015G21KT P6SM OVC020
     FM260000 05014KT P6SM OVC030
     FM260400 04009KT P6SM SCT030
     FM261500 05009KT P6SM SKC=



000
FTUS43 KDVN 252056 AAD
TAFMLI
TAF AMD
KMLI 252056Z 2521/2618 06018G24KT P6SM OVC018
     FM260100 05010KT P6SM OVC012
     FM260400 05007KT P6SM OVC020
     FM260700 05006KT P6SM SCT020
     FM261500 05009KT P6SM SKC=



000
FTUS43 KDVN 252056 AAD
TAFMLI
TAF AMD
KMLI 252056Z 2521/2618 06018G24KT P6SM OVC018
     FM260100 05010KT P6SM OVC012
     FM260400 05007KT P6SM OVC020
     FM260700 05006KT P6SM SCT020
     FM261500 05009KT P6SM SKC=



000
FTUS43 KDVN 252008 AAC
TAFMLI
TAF AMD
KMLI 252008Z 2520/2618 06018G24KT P6SM OVC020
     FM260100 05010KT P6SM OVC012
     FM260400 05007KT P6SM OVC020
     FM260700 05006KT P6SM SCT020
     FM261500 05009KT P6SM SKC=



000
FTUS43 KDVN 252002 AAB
TAFDBQ
TAF AMD
KDBQ 252002Z 2520/2618 07016G28KT P6SM VCSH BKN020 OVC040
     FM252100 07015G21KT P6SM SCT020 OVC040
     FM260000 06013KT P6SM OVC040
     FM260300 05010KT P6SM SCT040
     FM261500 05009KT P6SM SKC=



000
FTUS43 KDVN 252001 AAA
TAFBRL
TAF AMD
KBRL 252001Z 2520/2618 05014G20KT P6SM OVC008
     FM260000 05015G20KT P6SM OVC012
     FM260400 04010KT P6SM OVC020
     FM260700 04009KT P6SM SCT020
     FM261500 04009KT P6SM SKC=



000
FTUS43 KDVN 251942 AAA
TAFCID
TAF AMD
KCID 251942Z 2520/2618 06017G26KT P6SM OVC020
     FM260000 05014KT P6SM OVC030
     FM260400 04009KT P6SM SCT030
     FM261500 05009KT P6SM SKC=



000
FTUS43 KDVN 251858 AAA
TAFDBQ
TAF AMD
KDBQ 251858Z 2519/2618 07016G28KT P6SM VCSH BKN018 OVC040
     FM252100 07015G21KT P6SM SCT018 OVC040
     FM260000 06013KT P6SM OVC040
     FM260300 05010KT P6SM SCT040
     FM261500 05009KT P6SM SKC=



000
FTUS43 KDVN 251858 AAA
TAFDBQ
TAF AMD
KDBQ 251858Z 2519/2618 07016G28KT P6SM VCSH BKN018 OVC040
     FM252100 07015G21KT P6SM SCT018 OVC040
     FM260000 06013KT P6SM OVC040
     FM260300 05010KT P6SM SCT040
     FM261500 05009KT P6SM SKC=



000
FTUS43 KDVN 251848 AAB
TAFMLI
TAF AMD
KMLI 251848Z 2519/2618 07018G26KT 6SM BR VCSH BKN010 OVC040
     FM252100 06016G23KT P6SM OVC012
     FM260100 05010KT P6SM OVC012
     FM260400 05007KT P6SM OVC020
     FM260700 05006KT P6SM SCT020
     FM261500 05009KT P6SM SKC=



000
FTUS43 KDVN 251848 AAB
TAFMLI
TAF AMD
KMLI 251848Z 2519/2618 07018G26KT 6SM BR VCSH BKN010 OVC040
     FM252100 06016G23KT P6SM OVC012
     FM260100 05010KT P6SM OVC012
     FM260400 05007KT P6SM OVC020
     FM260700 05006KT P6SM SCT020
     FM261500 05009KT P6SM SKC=



000
FTUS43 KDVN 251809 AAA
TAFMLI
TAF AMD
KMLI 251809Z 2518/2618 07018G26KT 6SM BR VCSH BKN009 OVC040
     FM252100 06016G23KT P6SM OVC012
     FM260100 05010KT P6SM OVC012
     FM260400 05007KT P6SM OVC020
     FM260700 05006KT P6SM SCT020
     FM261500 05009KT P6SM SKC=



000
FTUS43 KDVN 251809 AAA
TAFMLI
TAF AMD
KMLI 251809Z 2518/2618 07018G26KT 6SM BR VCSH BKN009 OVC040
     FM252100 06016G23KT P6SM OVC012
     FM260100 05010KT P6SM OVC012
     FM260400 05007KT P6SM OVC020
     FM260700 05006KT P6SM SCT020
     FM261500 05009KT P6SM SKC=



000
FTUS43 KDVN 251732
TAFMLI
TAF
KMLI 251732Z 2518/2618 07018G26KT 6SM BR VCSH BKN010 OVC040
     FM252100 06016G23KT P6SM OVC012
     FM260100 05010KT P6SM OVC012
     FM260400 05007KT P6SM OVC020
     FM260700 05006KT P6SM SCT020
     FM261500 05009KT P6SM SKC=



000
FTUS43 KDVN 251732
TAFCID
TAF
KCID 251732Z 2518/2618 06017G26KT 6SM BR VCSH OVC010
     FM260000 05014KT P6SM OVC020
     FM260400 04009KT P6SM SCT020
     FM261500 05009KT P6SM SKC=



000
FTUS43 KDVN 251732
TAFDBQ
TAF
KDBQ 251732Z 2518/2618 07016G22KT P6SM VCSH BKN018 OVC040
     FM252100 07015G21KT P6SM SCT018 OVC040
     FM260000 06013KT P6SM OVC040
     FM260300 05010KT P6SM SCT040
     FM261500 05009KT P6SM SKC=



000
FTUS43 KDVN 251732
TAFBRL
TAF
KBRL 251732Z 2518/2618 08013KT P6SM OVC008
     FM252100 05014G20KT P6SM OVC008
     FM260000 05015G20KT P6SM OVC012
     FM260400 04010KT P6SM OVC020
     FM260700 04009KT P6SM SCT020
     FM261500 04009KT P6SM SKC=



000
FTUS43 KDVN 251709 AAG
TAFBRL
TAF AMD
KBRL 251709Z 2517/2612 06014KT P6SM BKN010 OVC015
     FM260200 05012KT P6SM OVC020
     FM260600 05008KT P6SM BKN050=



000
FTUS43 KDVN 251708 AAD
TAFMLI
TAF AMD
KMLI 251708Z 2517/2612 07017G26KT 6SM BR VCSH OVC015
     FM260000 06013KT P6SM BKN025
     FM260600 05006KT P6SM SKC=



000
FTUS43 KDVN 251701 AAF
TAFCID
TAF AMD
KCID 251701Z 2517/2612 07015G25KT 6SM BR OVC011
     FM252300 04014KT P6SM BKN035
     FM260600 04008KT P6SM SKC=



000
FTUS43 KDVN 251701 AAF
TAFCID
TAF AMD
KCID 251701Z 2517/2612 07015G25KT 6SM BR OVC011
     FM252300 04014KT P6SM BKN035
     FM260600 04008KT P6SM SKC=



000
FTUS43 KDVN 251611 AAE
TAFCID
TAF AMD
KCID 251611Z 2516/2612 07016G23KT 3SM -RA BR BKN007 OVC012
      TEMPO 2516/2518 2SM -RA BR
     FM251900 07015G23KT 5SM -RA BR OVC015
     FM252300 04014KT P6SM BKN035
     FM260600 04008KT P6SM SKC=



000
FTUS43 KDVN 251611 AAF
TAFBRL
TAF AMD
KBRL 251611Z 2516/2612 07013G22KT 6SM BR VCSH SCT007 OVC035
      TEMPO 2516/2517 19010KT 6SM BR BKN006
     FM251800 06014G21KT P6SM BKN008 OVC015
     FM260200 05012KT P6SM OVC020
     FM260600 05008KT P6SM BKN050=



000
FTUS43 KDVN 251611 AAF
TAFBRL
TAF AMD
KBRL 251611Z 2516/2612 07013G22KT 6SM BR VCSH SCT007 OVC035
      TEMPO 2516/2517 19010KT 6SM BR BKN006
     FM251800 06014G21KT P6SM BKN008 OVC015
     FM260200 05012KT P6SM OVC020
     FM260600 05008KT P6SM BKN050=



000
FTUS43 KDVN 251607 AAC
TAFMLI
TAF AMD
KMLI 251607Z 2516/2612 07016G21KT 3SM RA BR OVC007
      TEMPO 2516/2518 4SM -RA BR SCT007 OVC035
     FM251800 07015G22KT 5SM -RA BR OVC015
     FM260000 06013KT P6SM BKN025
     FM260600 05006KT P6SM SKC=



000
FTUS43 KDVN 251606 AAB
TAFDBQ
TAF AMD
KDBQ 251606Z 2516/2612 07015G22KT P6SM VCSH OVC035
     FM251800 07013KT P6SM OVC035
     FM260300 05007KT P6SM SKC=



000
FTUS43 KDVN 251605 AAD
TAFCID
TAF AMD
KCID 251605Z 2516/2612 07016G23KT 3SM -RA BR BKN007 OVC012
     FM251900 07015G23KT 5SM -RA BR OVC015
     FM252300 04014KT P6SM BKN035
     FM260600 04008KT P6SM SKC=



000
FTUS43 KDVN 251605 AAD
TAFCID
TAF AMD
KCID 251605Z 2516/2612 07016G23KT 3SM -RA BR BKN007 OVC012
     FM251900 07015G23KT 5SM -RA BR OVC015
     FM252300 04014KT P6SM BKN035
     FM260600 04008KT P6SM SKC=



000
FTUS43 KDVN 251604 AAE
TAFBRL
TAF AMD
KBRL 251604Z 2516/2612 07013G22KT 6SM BR VCSH SCT007 OVC035
     FM251800 06014G21KT P6SM BKN008 OVC015
     FM260200 05012KT P6SM OVC020
     FM260600 05008KT P6SM BKN050=



000
FTUS43 KDVN 251604 AAE
TAFBRL
TAF AMD
KBRL 251604Z 2516/2612 07013G22KT 6SM BR VCSH SCT007 OVC035
     FM251800 06014G21KT P6SM BKN008 OVC015
     FM260200 05012KT P6SM OVC020
     FM260600 05008KT P6SM BKN050=



000
FTUS43 KDVN 251521 AAB
TAFMLI
TAF AMD
KMLI 251521Z 2515/2612 08016KT 3SM RA BR OVC007
      TEMPO 2515/2518 13010KT 2SM RA BR OVC008
     FM251800 07015G22KT 5SM -RA BR OVC015
     FM260000 06013KT P6SM BKN025
     FM260600 05006KT P6SM SKC=



000
FTUS43 KDVN 251521 AAB
TAFMLI
TAF AMD
KMLI 251521Z 2515/2612 08016KT 3SM RA BR OVC007
      TEMPO 2515/2518 13010KT 2SM RA BR OVC008
     FM251800 07015G22KT 5SM -RA BR OVC015
     FM260000 06013KT P6SM BKN025
     FM260600 05006KT P6SM SKC=



000
FTUS43 KDVN 251519 AAD
TAFBRL
TAF AMD
KBRL 251519Z 2515/2612 07013G22KT 3SM -RA BR BKN007 OVC035
     FM251800 06014G21KT 6SM BR VCSH BKN008 OVC015
     FM260200 05012KT P6SM OVC020
     FM260600 05008KT P6SM BKN050=



000
FTUS43 KDVN 251503 AAA
TAFDBQ
TAF AMD
KDBQ 251503Z 2515/2612 07014KT P6SM SCT018 OVC040
     FM251600 07012KT P6SM VCSH OVC030
      TEMPO 2516/2518 4SM -RA OVC020
     FM251800 07013KT P6SM OVC035
     FM260300 05007KT P6SM SKC=



000
FTUS43 KDVN 251503 AAC
TAFBRL
TAF AMD
KBRL 251503Z 2515/2612 07013G22KT 3SM -RA BR SCT007 OVC035
     FM251800 06014G21KT 6SM BR VCSH BKN008 OVC015
     FM260200 05012KT P6SM OVC020
     FM260600 05008KT P6SM BKN050=



000
FTUS43 KDVN 251503 AAC
TAFBRL
TAF AMD
KBRL 251503Z 2515/2612 07013G22KT 3SM -RA BR SCT007 OVC035
     FM251800 06014G21KT 6SM BR VCSH BKN008 OVC015
     FM260200 05012KT P6SM OVC020
     FM260600 05008KT P6SM BKN050=



000
FTUS43 KDVN 251501 AAA
TAFMLI
TAF AMD
KMLI 251501Z 2515/2612 08016KT 3SM RA BR OVC007
     FM251800 07015G22KT 5SM -RA BR OVC015
     FM260000 06013KT P6SM BKN025
     FM260600 05006KT P6SM SKC=



000
FTUS43 KDVN 251501 AAA
TAFMLI
TAF AMD
KMLI 251501Z 2515/2612 08016KT 3SM RA BR OVC007
     FM251800 07015G22KT 5SM -RA BR OVC015
     FM260000 06013KT P6SM BKN025
     FM260600 05006KT P6SM SKC=



000
FTUS43 KDVN 251500 AAC
TAFCID
TAF AMD
KCID 251500Z 2515/2612 10017KT 5SM -RA BR OVC020
      TEMPO 2515/2516 2SM -RA BR OVC009
     FM251600 07016G23KT 3SM -SHRA BR SCT007 OVC012
     FM251900 07015G23KT 5SM -RA BR OVC015
     FM252300 04014KT P6SM BKN035
     FM260600 04008KT P6SM SKC=



000
FTUS43 KDVN 251434 AAB
TAFBRL
TAF AMD
KBRL 251434Z 2515/2612 08015KT 1 1/2SM -RA BR VCTS SCT007 OVC035CB
     FM251530 07013G22KT 3SM -RA BR SCT007 OVC012
     FM251800 06014G21KT 6SM BR VCSH BKN008 OVC015
     FM260200 05012KT P6SM OVC020
     FM260600 05008KT P6SM BKN050=



000
FTUS43 KDVN 251434 AAB
TAFBRL
TAF AMD
KBRL 251434Z 2515/2612 08015KT 1 1/2SM -RA BR VCTS SCT007 OVC035CB
     FM251530 07013G22KT 3SM -RA BR SCT007 OVC012
     FM251800 06014G21KT 6SM BR VCSH BKN008 OVC015
     FM260200 05012KT P6SM OVC020
     FM260600 05008KT P6SM BKN050=



000
FTUS43 KDVN 251429 AAB
TAFCID
TAF AMD
KCID 251429Z 2514/2612 08017G25KT 5SM -RA BR OVC020
      TEMPO 2514/2516 2SM -RA BR OVC015
     FM251600 07016G23KT 3SM -SHRA BR SCT007 OVC012
     FM251900 07015G23KT 5SM -RA BR OVC015
     FM252300 04014KT P6SM BKN035
     FM260600 04008KT P6SM SKC=



000
FTUS43 KDVN 251429 AAB
TAFCID
TAF AMD
KCID 251429Z 2514/2612 08017G25KT 5SM -RA BR OVC020
      TEMPO 2514/2516 2SM -RA BR OVC015
     FM251600 07016G23KT 3SM -SHRA BR SCT007 OVC012
     FM251900 07015G23KT 5SM -RA BR OVC015
     FM252300 04014KT P6SM BKN035
     FM260600 04008KT P6SM SKC=



000
FTUS43 KDVN 251359 AAA
TAFBRL
TAF AMD
KBRL 251359Z 2514/2612 08012KT 4SM -SHRA BR VCTS SCT007 OVC015CB
      TEMPO 2514/2515 1 1/2SM SHRA OVC008
     FM251500 07013G22KT 3SM -SHRA BR VCTS SCT007 OVC012CB
      TEMPO 2515/2517 2SM -TSRA BKN008CB
     FM251800 06014G21KT 6SM BR VCSH BKN008 OVC015
     FM260200 05012KT P6SM OVC020
     FM260600 05008KT P6SM BKN050=



000
FTUS43 KDVN 251239 AAA
TAFCID
TAF AMD
KCID 251239Z 2513/2612 08017G25KT 5SM -SHRA BR OVC020
      TEMPO 2513/2516 3SM -SHRA OVC015
     FM251600 07016G23KT 3SM -SHRA BR SCT007 OVC012
     FM251900 07015G23KT 5SM -RA BR OVC015
     FM252300 04014KT P6SM BKN035
     FM260600 04008KT P6SM SKC=



000
FTUS43 KDVN 251130
TAFCID
TAF
KCID 251130Z 2512/2612 08016G24KT 5SM -SHRA BR VCTS BKN025CB OVC035
      TEMPO 2512/2515 3SM -SHRA BKN015 OVC025
     FM251500 07016G23KT 3SM -SHRA BR SCT007 OVC012
     FM251800 07015G23KT 5SM -RA BR OVC015
     FM252300 04014KT P6SM BKN035
     FM260600 04008KT P6SM SKC=



000
FTUS43 KDVN 251130
TAFBRL
TAF
KBRL 251130Z 2512/2612 08012KT P6SM VCSH SCT007 OVC015
      TEMPO 2512/2514 4SM -SHRA BKN008 OVC012
     FM251400 07013G22KT 3SM -SHRA BR VCTS SCT007 OVC012CB
      TEMPO 2514/2517 2SM -TSRA BKN008CB
     FM251800 06014G21KT 6SM BR VCSH BKN008 OVC015
     FM260200 05012KT P6SM OVC020
     FM260600 05008KT P6SM BKN050=



000
FTUS43 KDVN 251130
TAFDBQ
TAF
KDBQ 251130Z 2512/2612 07014KT P6SM OVC040
      TEMPO 2514/2516 5SM -RA OVC035
     FM251600 07012KT P6SM VCSH OVC030
      TEMPO 2516/2518 4SM -RA OVC020
     FM251800 07013KT P6SM OVC035
     FM260300 05007KT P6SM SKC=



000
FTUS43 KDVN 251130
TAFMLI
TAF
KMLI 251130Z 2512/2612 08016G24KT 4SM -SHRA BR VCTS SCT008 OVC015CB
      TEMPO 2512/2515 2SM -SHRA BR OVC008
     FM251500 08016G24KT 2SM RA BR VCTS SCT007 OVC012CB
     FM251800 07015G22KT 5SM -RA BR OVC015
     FM260000 06013KT P6SM BKN025
     FM260600 05006KT P6SM SKC=



000
FTUS43 KDVN 251021 AAA
TAFDBQ
TAF AMD
KDBQ 251021Z 2510/2606 08014KT P6SM OVC035
     FM251200 07014KT P6SM VCSH OVC030
     FM251500 09015G22KT 4SM -RA BR SCT009 OVC015
     FM251800 06014G21KT 6SM BR VCSH OVC020
     FM252100 06017G25KT P6SM OVC025
     FM260000 05012KT P6SM BKN050=



000
FTUS43 KDVN 251004 AAA
TAFMLI
TAF AMD
KMLI 251004Z 2510/2606 08016G24KT 4SM -SHRA BR VCTS SCT008 OVC015CB
      TEMPO 2510/2514 2SM -SHRA BR OVC008
     FM251400 09016G24KT 2SM RA BR VCTS SCT007 OVC012CB
     FM251800 07015G22KT 5SM -RA BR OVC015
     FM260000 05013KT P6SM BKN035=



000
FTUS43 KDVN 251004 AAA
TAFMLI
TAF AMD
KMLI 251004Z 2510/2606 08016G24KT 4SM -SHRA BR VCTS SCT008 OVC015CB
      TEMPO 2510/2514 2SM -SHRA BR OVC008
     FM251400 09016G24KT 2SM RA BR VCTS SCT007 OVC012CB
     FM251800 07015G22KT 5SM -RA BR OVC015
     FM260000 05013KT P6SM BKN035=



000
FTUS43 KDVN 250958 AAA
TAFBRL
TAF AMD
KBRL 250958Z 2510/2606 08012KT P6SM VCSH SCT015 OVC020
      TEMPO 2510/2512 4SM -SHRA OVC015
     FM251200 09015G22KT 2SM -SHRA BR VCTS SCT007 OVC012CB
     FM251800 06014G21KT 6SM BR VCSH OVC015
     FM260100 05012KT P6SM OVC025=



000
FTUS43 KDVN 250958 AAA
TAFBRL
TAF AMD
KBRL 250958Z 2510/2606 08012KT P6SM VCSH SCT015 OVC020
      TEMPO 2510/2512 4SM -SHRA OVC015
     FM251200 09015G22KT 2SM -SHRA BR VCTS SCT007 OVC012CB
     FM251800 06014G21KT 6SM BR VCSH OVC015
     FM260100 05012KT P6SM OVC025=



000
FTUS43 KDVN 250953 AAA
TAFCID
TAF AMD
KCID 250953Z 2510/2606 08015G24KT 5SM -SHRA BR VCTS BKN025CB OVC035
      TEMPO 2510/2513 3SM -SHRA BKN015 OVC025
     FM251300 09016G25KT 1 1/2SM RA BR SCT007 OVC012
     FM251700 07015G23KT 5SM -RA BR OVC015
     FM252300 04014KT P6SM BKN035=



000
FTUS43 KDVN 250520
TAFMLI
TAF
KMLI 250520Z 2506/2606 09014KT P6SM OVC050
     FM250800 08014KT P6SM VCSH BKN035 OVC050
      TEMPO 2508/2510 4SM -SHRA BKN025 OVC040
     FM251000 09015G22KT 1 1/2SM RA BR SCT007 OVC012
     FM251800 06014G21KT 6SM BR VCSH OVC020
     FM260000 04012KT P6SM SCT250=



000
FTUS43 KDVN 250520
TAFMLI
TAF
KMLI 250520Z 2506/2606 09014KT P6SM OVC050
     FM250800 08014KT P6SM VCSH BKN035 OVC050
      TEMPO 2508/2510 4SM -SHRA BKN025 OVC040
     FM251000 09015G22KT 1 1/2SM RA BR SCT007 OVC012
     FM251800 06014G21KT 6SM BR VCSH OVC020
     FM260000 04012KT P6SM SCT250=



000
FTUS43 KDVN 250520
TAFBRL
TAF
KBRL 250520Z 2506/2606 12010KT P6SM SCT050 BKN110
     FM250700 08014KT P6SM VCSH BKN035 OVC050
      TEMPO 2507/2509 4SM -SHRA BKN025 OVC040
     FM250900 09015G22KT 1 1/2SM RA BR SCT007 OVC012
     FM251800 06014G21KT 6SM BR VCSH OVC020
     FM260100 04012KT P6SM SCT250=



000
FTUS43 KDVN 250520
TAFBRL
TAF
KBRL 250520Z 2506/2606 12010KT P6SM SCT050 BKN110
     FM250700 08014KT P6SM VCSH BKN035 OVC050
      TEMPO 2507/2509 4SM -SHRA BKN025 OVC040
     FM250900 09015G22KT 1 1/2SM RA BR VCTS SCT007CB OVC012
     FM251800 06014G21KT 6SM BR VCSH OVC020
     FM260100 04012KT P6SM SCT250=



000
FTUS43 KDVN 250520
TAFBRL
TAF
KBRL 250520Z 2506/2606 12010KT P6SM SCT050 BKN110
     FM250700 08014KT P6SM VCSH BKN035 OVC050
      TEMPO 2507/2509 4SM -SHRA BKN025 OVC040
     FM250900 09015G22KT 1 1/2SM RA BR SCT007 OVC012
     FM251800 06014G21KT 6SM BR VCSH OVC020
     FM260100 04012KT P6SM SCT250=



000
FTUS43 KDVN 250520
TAFCID
TAF
KCID 250520Z 2506/2606 09012KT P6SM FEW050 SCT070
     FM250800 08014KT P6SM VCSH BKN035 OVC050
      TEMPO 2508/2510 4SM -SHRA BKN025 OVC040
     FM251000 09015G22KT 1 1/2SM RA BR SCT007 OVC012
     FM251700 06014G21KT 6SM BR VCSH OVC020
     FM252300 04012KT P6SM SCT250=



000
FTUS43 KDVN 250520
TAFCID
TAF
KCID 250520Z 2506/2606 09012KT P6SM FEW050 SCT070
     FM250800 08014KT P6SM VCSH BKN035 OVC050
      TEMPO 2508/2510 4SM -SHRA BKN025 OVC040
     FM251000 09015G22KT 1 1/2SM RA BR SCT007 OVC012
     FM251700 06014G21KT 6SM BR VCSH OVC020
     FM252300 04012KT P6SM SCT250=



000
FTUS43 KDVN 250520
TAFDBQ
TAF
KDBQ 250520Z 2506/2606 09014KT P6SM VCSH OVC050
     FM250900 08014KT P6SM VCSH BKN035 OVC050
      TEMPO 2509/2511 4SM -SHRA BKN025 OVC040
     FM251100 09015G22KT 2SM -RA BR SCT009 OVC015
     FM251800 06014G21KT 6SM BR VCSH OVC020
     FM252100 04012KT P6SM SCT250=



000
FTUS43 KDVN 250520
TAFDBQ
TAF
KDBQ 250520Z 2506/2606 09014KT P6SM VCSH OVC050
     FM250900 08014KT P6SM VCSH BKN035 OVC050
      TEMPO 2509/2511 4SM -SHRA BKN025 OVC040
     FM251100 09015G22KT 2SM -RA BR SCT009 OVC015
     FM251800 06014G21KT 6SM BR VCSH OVC020
     FM252100 04012KT P6SM SCT250=



000
FTUS43 KDVN 250141 AAA
TAFCID
TAF AMD
KCID 250141Z 2502/2524 08012KT P6SM VCTS FEW030CB OVC050
      TEMPO 2502/2506 2SM -TSRA SCT020CB OVC030
     FM250600 11012KT 6SM BR VCSH SCT012 OVC020
     FM250900 09015KT 1 1/2SM RA BR SCT007 OVC012
     FM251700 06014G21KT 6SM BR VCSH OVC020=



000
FTUS43 KDVN 250141 AAA
TAFCID
TAF AMD
KCID 250141Z 2502/2524 08012KT P6SM VCTS FEW030CB OVC050
      TEMPO 2502/2506 2SM -TSRA SCT020CB OVC030
     FM250600 11012KT 6SM BR VCSH SCT012 OVC020
     FM250900 09015KT 1 1/2SM RA BR SCT007 OVC012
     FM251700 06014G21KT 6SM BR VCSH OVC020=



000
FTUS43 KDVN 242333
TAFCID
TAF
KCID 242333Z 2500/2524 08012KT P6SM VCSH OVC050
      TEMPO 2500/2502 4SM -SHRA OVC035
     FM250200 10012KT P6SM SCT025 OVC035
     FM250500 11012KT 6SM BR VCSH OVC020
     FM251000 09015KT 2SM RA BR SCT008 OVC012
     FM251700 06014G21KT 6SM BR VCSH OVC020=



000
FTUS43 KDVN 242333
TAFBRL
TAF
KBRL 242333Z 2500/2524 14010KT P6SM VCSH OVC050
     FM250200 12012KT P6SM BKN040
     FM250600 11012KT 6SM BR VCSH OVC020
     FM251000 09015KT 2SM RA BR VCTS SCT008CB OVC012
     FM251700 06014G21KT 6SM BR VCSH OVC020=



000
FTUS43 KDVN 242333
TAFMLI
TAF
KMLI 242333Z 2500/2524 10012KT P6SM OVC050
      TEMPO 2500/2502 4SM -SHRA OVC035
     FM250300 10012KT P6SM SCT025 OVC035
     FM250600 11012KT 6SM BR VCSH OVC020
     FM251100 09015G22KT 2SM RA BR SCT008 OVC012
     FM251800 06014G21KT 6SM BR VCSH OVC020=



000
FTUS43 KDVN 242333
TAFDBQ
TAF
KDBQ 242333Z 2500/2524 09010KT P6SM OVC050
      TEMPO 2500/2502 4SM -SHRA OVC035
     FM250200 10012KT P6SM SCT025 OVC035
     FM250500 11012KT 6SM BR VCSH OVC020
     FM251100 09015G22KT 2SM RA BR SCT008 OVC012
     FM251700 06014G21KT 6SM BR VCSH OVC020=



000
FTUS43 KDVN 242045 AAA
TAFBRL
TAF AMD
KBRL 242045Z 2421/2518 15013KT P6SM OVC050
     FM250200 12012KT P6SM VCSH BKN040
     FM250500 10012KT 5SM -RA BR OVC020
     FM251100 08012KT 3SM RA BR BKN008 OVC012=



000
FTUS43 KDVN 242042 AAC
TAFCID
TAF AMD
KCID 242042Z 2421/2518 08013KT 4SM -SHRA VCTS OVC050CB
      TEMPO 2421/2423 2SM TSRA OVC035CB
     FM250000 12014KT P6SM BKN040
     FM250700 11012KT 4SM -RA BR OVC020
     FM251100 08015KT 3SM RA BR OVC012=



000
FTUS43 KDVN 242039 AAB
TAFDBQ
TAF AMD
KDBQ 242039Z 2421/2518 14013KT 5SM -SHRA OVC050
      TEMPO 2421/2423 2SM SHRA OVC035
     FM250100 12014KT P6SM BKN040
     FM250900 08014KT 5SM -RA BR OVC020
     FM251200 08015KT 3SM RA BR OVC012=



000
FTUS43 KDVN 241917 AAB
TAFCID
TAF AMD
KCID 241917Z 2419/2518 14014KT 5SM -SHRA VCTS OVC050CB
      TEMPO 2419/2421 2SM TSRA OVC035CB
     FM250000 12014KT P6SM BKN040
     FM250700 11012KT 4SM -RA BR OVC020
     FM251100 08015KT 3SM RA BR OVC012=



000
FTUS43 KDVN 241851 AAA
TAFDBQ
TAF AMD
KDBQ 241851Z 2419/2518 14013KT 6SM -SHRA OVC050
      TEMPO 2419/2422 3SM SHRA OVC035
     FM250100 12014KT P6SM BKN040
     FM250900 08014KT 5SM -RA BR OVC020
     FM251200 08015KT 3SM RA BR OVC012=



000
FTUS43 KDVN 241848 AAA
TAFCID
TAF AMD
KCID 241848Z 2419/2518 14014G21KT 6SM -SHRA OVC050
      TEMPO 2419/2421 2SM SHRA OVC035
     FM250000 12014KT P6SM BKN040
     FM250700 11012KT 4SM -RA BR OVC020
     FM251100 08015KT 3SM RA BR OVC012=



000
FTUS43 KDVN 241848 AAA
TAFCID
TAF AMD
KCID 241848Z 2419/2518 14014G21KT 6SM -SHRA OVC050
      TEMPO 2419/2421 2SM SHRA OVC035
     FM250000 12014KT P6SM BKN040
     FM250700 11012KT 4SM -RA BR OVC020
     FM251100 08015KT 3SM RA BR OVC012=



000
FTUS43 KDVN 241729
TAFDBQ
TAF
KDBQ 241729Z 2418/2518 14013KT P6SM VCSH OVC050
      TEMPO 2418/2422 6SM -SHRA OVC035
     FM250100 12014KT P6SM BKN040
     FM250900 08014KT 5SM -RA BR OVC020
     FM251200 08015KT 3SM RA BR OVC012=



000
FTUS43 KDVN 241729
TAFCID
TAF
KCID 241729Z 2418/2518 14014G21KT P6SM VCSH OVC050
      TEMPO 2418/2421 6SM -SHRA OVC035
     FM250000 12014KT P6SM BKN040
     FM250700 11012KT 4SM -RA BR OVC020
     FM251100 08015KT 3SM RA BR OVC012=



000
FTUS43 KDVN 241729
TAFBRL
TAF
KBRL 241729Z 2418/2518 15013KT P6SM OVC050
     FM250200 12012KT P6SM BKN040
     FM250500 10012KT 5SM -RA BR OVC020
     FM251100 08012KT 3SM RA BR BKN008 OVC012=



000
FTUS43 KDVN 241729
TAFMLI
TAF
KMLI 241729Z 2418/2518 14013KT P6SM OVC050
      TEMPO 2422/2502 6SM -SHRA OVC035
     FM250200 12014KT P6SM BKN040
     FM250700 10012KT 5SM -RA BR OVC030
     FM251100 09015KT 3SM RA BR OVC015=



000
FTUS43 KDVN 241729
TAFBRL
TAF
KBRL 241729Z 2418/2518 15013KT P6SM OVC050
     FM250200 12012KT P6SM BKN040
     FM250500 10012KT 5SM -RA BR OVC020
     FM251100 08012KT 3SM RA BR BKN008 OVC012=



000
FTUS43 KDVN 241729
TAFMLI
TAF
KMLI 241729Z 2418/2518 14013KT P6SM OVC050
      TEMPO 2422/2502 6SM -SHRA OVC035
     FM250200 12014KT P6SM BKN040
     FM250700 10012KT 5SM -RA BR OVC030
     FM251100 09015KT 3SM RA BR OVC015=



000
FTUS43 KDVN 241729
TAFDBQ
TAF
KDBQ 241729Z 2418/2518 14013KT P6SM VCSH OVC050
      TEMPO 2418/2422 6SM -SHRA OVC035
     FM250100 12014KT P6SM BKN040
     FM250900 08014KT 5SM -RA BR OVC020
     FM251200 08015KT 3SM RA BR OVC012=



000
FTUS43 KDVN 241729
TAFCID
TAF
KCID 241729Z 2418/2518 14014G21KT P6SM VCSH OVC050
      TEMPO 2418/2421 6SM -SHRA OVC035
     FM250000 12014KT P6SM BKN040
     FM250700 11012KT 4SM -RA BR OVC020
     FM251100 08015KT 3SM RA BR OVC012=



000
FTUS43 KDVN 241130
TAFMLI
TAF
KMLI 241130Z 2412/2512 13006KT P6SM OVC070
     FM242100 13012KT P6SM VCSH OVC050
     FM250200 11013KT 5SM -SHRA BKN035 OVC050
     FM250600 11015KT 4SM -RA OVC025
     FM250900 10012KT 3SM -RA OVC015=



000
FTUS43 KDVN 241130
TAFBRL
TAF
KBRL 241130Z 2412/2512 13007KT P6SM OVC070
     FM242200 14012KT P6SM VCSH OVC050
     FM250200 13013KT 5SM -SHRA BKN035 OVC050
     FM250600 12012KT 4SM -RA OVC015
     FM250900 10011KT 3SM -RA BR BKN008 OVC012=



000
FTUS43 KDVN 241130
TAFCID
TAF
KCID 241130Z 2412/2512 13006KT P6SM VCSH OVC060
      TEMPO 2412/2413 5SM -SHRA BKN035 OVC050
     FM241300 14012KT P6SM OVC050
     FM241800 14011KT P6SM VCSH SCT040 OVC080
      TEMPO 2418/2421 5SM -SHRA OVC040
     FM242100 13012KT P6SM VCSH OVC040
     FM250200 11014KT 5SM -RA BKN035 OVC050
     FM250600 11011KT 3SM -RA OVC015=



000
FTUS43 KDVN 241130
TAFDBQ
TAF
KDBQ 241130Z 2412/2512 13006KT P6SM VCSH OVC070
      TEMPO 2412/2414 5SM -SHRA BKN040
     FM241400 15012KT P6SM OVC050
     FM241900 14011KT P6SM VCSH SCT040 OVC080
      TEMPO 2419/2422 5SM -SHRA OVC035
     FM242200 13012KT P6SM VCSH OVC040
     FM250300 11014KT 5SM -RA BKN035 OVC050
     FM250600 11011KT 3SM -RA OVC015=



000
FTUS43 KDVN 241021 AAA
TAFCID
TAF AMD
KCID 241021Z 2410/2506 13006KT P6SM VCSH OVC060
      TEMPO 2410/2413 5SM -SHRA BKN040 OVC050
     FM241300 14013KT P6SM VCSH OVC050 PROB30 2419/2501 4SM -SHRA
      OVC040
     FM250100 11010KT P6SM VCSH BKN035 OVC050=



000
FTUS43 KDVN 240520
TAFBRL
TAF
KBRL 240520Z 2406/2506 31006KT P6SM SKC
     FM241000 12006KT P6SM SCT080 BKN200
     FM241600 14013KT P6SM VCSH BKN070 PROB30 2420/2502 4SM -SHRA
      OVC040
     FM250200 11010KT P6SM VCSH BKN035 OVC050=



000
FTUS43 KDVN 240520
TAFDBQ
TAF
KDBQ 240520Z 2406/2506 VRB03KT P6SM SKC
     FM241000 12006KT P6SM SCT080 BKN200
     FM241600 14013KT P6SM VCSH BKN070 PROB30 2420/2502 4SM -SHRA
      OVC040
     FM250200 11010KT P6SM VCSH BKN035 OVC050=



000
FTUS43 KDVN 240520
TAFMLI
TAF
KMLI 240520Z 2406/2506 VRB03KT P6SM SKC
     FM241000 12006KT P6SM SCT080 BKN200
     FM241600 14013KT P6SM VCSH BKN070 PROB30 2420/2502 4SM -SHRA
      OVC040
     FM250200 11010KT P6SM VCSH BKN035 OVC050=



000
FTUS43 KDVN 240520
TAFCID
TAF
KCID 240520Z 2406/2506 VRB03KT P6SM SKC
     FM240700 12006KT P6SM SCT080 BKN200
     FM241400 14013KT P6SM VCSH BKN070 PROB30 2419/2501 4SM -SHRA
      OVC040
     FM250100 11010KT P6SM VCSH BKN035 OVC050=



    US Dept of Commerce
    National Oceanic and Atmospheric Administration
    National Weather Service
    1325 East West Highway
    Silver Spring, MD 20910
    Page Author: NWS Internet Services Team
Disclaimer
Information Quality
Credits
Glossary
Privacy Policy
Freedom of Information Act (FOIA)
About Us
Career Opportunities